M I D A S
Marine Information and Data Acquisition System
Tripno 906 of the Zeeleeuw from 2005-05-27 06:47:20 to 2005-05-27 12:54:50
Back to CruiseResearch ActivitiesStationsMapUnderway DataData graphs

EquipmentUnitsComment
TimeDGPSUTC
LatitudeDGPSDM.mWGS84
LongitudeDGPSDM.mWGS84
HeadingGyrodeg 
SOGDGPSknotsSpeed over ground
COGDGPSdegCourse over ground
DepthEcho soundermeters200 kHz
Missing or incorrect values are displayed as -999
Navigation data collected by the RV Zeeleeuw from 2005-05-27 06:38:38 to 2005-05-27 13:02:10
                                                                                    Next 1000 lines
Time Latitude Longitude Heading SOG COG Depth
2005-05-27 06:38:48 51°13.596 2°56.108 116.9 0.3 165 6.5
2005-05-27 06:38:53 51°13.596 2°56.108 115.7 0.2 181 6.5
2005-05-27 06:38:58 51°13.596 2°56.108 114.6 0.2 184 6.5
2005-05-27 06:39:02 51°13.596 2°56.108 113.3 0.2 184 6.5
2005-05-27 06:39:08 51°13.596 2°56.107 112.2 0.1 278 6.5
2005-05-27 06:39:13 51°13.596 2°56.106 111.1 0.1 278 6.5
2005-05-27 06:39:18 51°13.596 2°56.103 110.5 0.5 282 6.5
2005-05-27 06:39:22 51°13.597 2°56.1 110.3 1.1 284 6.5
2005-05-27 06:39:28 51°13.598 2°56.096 110.3 1.1 284 6.5
2005-05-27 06:39:32 51°13.599 2°56.091 110.3 2.2 289 6.7
2005-05-27 06:39:38 51°13.601 2°56.085 110.7 2.6 292 6
2005-05-27 06:39:42 51°13.603 2°56.079 111.4 3 292 -999
2005-05-27 06:39:48 51°13.605 2°56.071 111.9 3.2 292 -999
2005-05-27 06:39:52 51°13.606 2°56.066 112 3.5 292 -999
2005-05-27 06:39:58 51°13.608 2°56.058 112.2 3.5 292 -999
2005-05-27 06:40:03 51°13.61 2°56.049 112.5 3.6 292 -999
2005-05-27 06:40:08 51°13.612 2°56.042 112.8 3.6 292 -999
2005-05-27 06:40:12 51°13.613 2°56.035 113.2 3.9 290 -999
2005-05-27 06:40:18 51°13.616 2°56.025 113.4 4 290 -999
2005-05-27 06:40:23 51°13.617 2°56.016 113.6 4.1 290 -999
2005-05-27 06:40:28 51°13.62 2°56.006 114.1 4.2 290 -999
2005-05-27 06:40:32 51°13.622 2°55.999 115 4.4 291 -999
2005-05-27 06:40:38 51°13.625 2°55.988 116.4 4.5 292 -999
2005-05-27 06:40:42 51°13.627 2°55.981 118.2 4.6 293 -999
2005-05-27 06:40:48 51°13.631 2°55.969 119.8 4.7 295 -999
2005-05-27 06:40:53 51°13.633 2°55.96 121.5 4.7 295 -999
2005-05-27 06:40:58 51°13.637 2°55.95 123.1 5.1 298 -999
2005-05-27 06:41:03 51°13.641 2°55.94 124.4 5.1 300 -999
2005-05-27 06:41:08 51°13.645 2°55.929 125.7 5.2 302 -999
2005-05-27 06:41:12 51°13.648 2°55.922 126.7 5.4 303 -999
2005-05-27 06:41:18 51°13.653 2°55.91 127.4 5.4 303 -999
2005-05-27 06:41:22 51°13.657 2°55.902 128 5.3 305 -999
2005-05-27 06:41:28 51°13.662 2°55.891 128.4 5.4 305 -999
2005-05-27 06:41:33 51°13.667 2°55.881 128.7 5.4 306 -999
2005-05-27 06:41:38 51°13.671 2°55.871 129.2 5.4 306 -999
2005-05-27 06:41:42 51°13.675 2°55.863 129.9 5.7 307 -999
2005-05-27 06:41:48 51°13.681 2°55.851 130.2 5.7 307 -999
2005-05-27 06:41:53 51°13.686 2°55.842 130.8 5.7 307 -999
2005-05-27 06:41:58 51°13.691 2°55.832 131.3 5.9 309 -999
2005-05-27 06:42:03 51°13.696 2°55.821 131.8 6 309 -999
2005-05-27 06:42:08 51°13.702 2°55.81 132 6 309 -999
2005-05-27 06:42:12 51°13.706 2°55.802 132.4 6 309 -999
2005-05-27 06:42:18 51°13.712 2°55.791 132.9 6 309 -999
2005-05-27 06:42:23 51°13.718 2°55.78 133.8 6.1 310 -999
2005-05-27 06:42:28 51°13.723 2°55.77 134.9 6 311 -999
2005-05-27 06:42:32 51°13.728 2°55.762 136.5 6 312 -999
2005-05-27 06:42:38 51°13.734 2°55.751 138 6 312 -999
2005-05-27 06:42:43 51°13.741 2°55.74 139.3 6.1 314 -999
2005-05-27 06:42:48 51°13.747 2°55.731 140.9 6.2 314 -999
2005-05-27 06:42:53 51°13.753 2°55.723 142.8 6.1 316 -999
2005-05-27 06:42:58 51°13.76 2°55.714 144.8 6.2 318 -999
2005-05-27 06:43:03 51°13.767 2°55.705 146.5 6.2 319 -999
2005-05-27 06:43:08 51°13.775 2°55.697 149.6 6.2 324 -999
2005-05-27 06:43:13 51°13.781 2°55.691 152.9 6.1 328 -999
2005-05-27 06:43:18 51°13.789 2°55.684 155.8 6.1 328 -999
2005-05-27 06:43:23 51°13.795 2°55.68 158.5 5.4 334 -999
2005-05-27 06:43:28 51°13.801 2°55.676 160.4 5.4 334 -999
2005-05-27 06:43:32 51°13.805 2°55.673 162.7 3.9 338 5.8
2005-05-27 06:43:38 51°13.808 2°55.671 163.4 3.5 337 -999
2005-05-27 06:43:42 51°13.81 2°55.67 163.3 3.5 337 8.7
2005-05-27 06:43:47 51°13.813 2°55.668 162.2 3.5 337 5
2005-05-27 06:43:52 51°13.816 2°55.667 161.3 2.1 338 4.9
2005-05-27 06:43:58 51°13.82 2°55.665 161.8 2.2 339 -999
2005-05-27 06:44:03 51°13.822 2°55.663 163 2.2 339 4.8
2005-05-27 06:44:08 51°13.824 2°55.661 163.3 2.2 339 4.7
2005-05-27 06:44:12 51°13.827 2°55.659 161.9 2 339 4.8
2005-05-27 06:44:18 51°13.831 2°55.657 161 2.2 338 -999
2005-05-27 06:44:23 51°13.834 2°55.655 161.1 2.6 338 -999
2005-05-27 06:44:28 51°13.838 2°55.652 161.8 2.6 338 -999
2005-05-27 06:44:32 51°13.842 2°55.65 162.4 3.2 339 -999
2005-05-27 06:44:38 51°13.847 2°55.647 163.5 3.5 340 -999
2005-05-27 06:44:43 51°13.853 2°55.644 164.7 3.6 340 -999
2005-05-27 06:44:48 51°13.858 2°55.642 166.2 3.6 340 -999
2005-05-27 06:44:53 51°13.863 2°55.64 167.5 3.9 344 -999
2005-05-27 06:44:58 51°13.867 2°55.637 169.5 3.9 344 -999
2005-05-27 06:45:03 51°13.873 2°55.635 171.2 4.2 348 -999
2005-05-27 06:45:08 51°13.88 2°55.632 173.2 4.2 348 -999
2005-05-27 06:45:13 51°13.886 2°55.631 175.5 4.6 351 -999
2005-05-27 06:45:18 51°13.893 2°55.631 177.8 4.6 351 -999
2005-05-27 06:45:22 51°13.898 2°55.63 180.2 4.9 355 -999
2005-05-27 06:45:28 51°13.906 2°55.629 182.8 4.8 357 -999
2005-05-27 06:45:32 51°13.912 2°55.629 185.3 4.9 -999 -999
2005-05-27 06:45:38 51°13.92 2°55.631 187.8 4.9 -999 -999
2005-05-27 06:45:42 51°13.925 2°55.632 190.2 4.5 3 -999
2005-05-27 06:45:48 51°13.931 2°55.632 192.4 4.1 3 -999
2005-05-27 06:45:53 51°13.935 2°55.633 194.2 3.7 3 -999
2005-05-27 06:45:58 51°13.937 2°55.633 197 3.7 3 -999
2005-05-27 06:46:03 51°13.938 2°55.633 200.8 1.5 357 -999
2005-05-27 06:46:08 51°13.938 2°55.631 205.2 0.6 322 -999
2005-05-27 06:46:12 51°13.938 2°55.629 209.5 0.6 322 4.9
2005-05-27 06:46:18 51°13.936 2°55.626 215.6 0.6 322 9.6
2005-05-27 06:46:23 51°13.935 2°55.622 221.1 2 239 4.7
2005-05-27 06:46:28 51°13.932 2°55.616 228.4 2.7 242 4.9
2005-05-27 06:46:32 51°13.931 2°55.609 235.8 3.2 245 9.8
2005-05-27 06:46:37 51°13.93 2°55.602 243.1 3.5 249 9.8
2005-05-27 06:46:43 51°13.929 2°55.593 250.6 3.5 249 9.8
2005-05-27 06:46:48 51°13.928 2°55.587 256.6 3.2 262 10.2
2005-05-27 06:46:52 51°13.928 2°55.583 259.5 3.2 262 9.8
2005-05-27 06:46:58 51°13.928 2°55.58 263 1.6 272 9.8
2005-05-27 06:47:02 51°13.928 2°55.579 268.2 1 270 9.6
2005-05-27 06:47:08 51°13.928 2°55.58 272.1 0.1 343 9.6
2005-05-27 06:47:12 51°13.928 2°55.582 275.8 0.1 343 9.7
2005-05-27 06:47:18 51°13.928 2°55.586 278.1 1.3 95 9.8
2005-05-27 06:47:22 51°13.928 2°55.59 281.1 1.3 95 -999
2005-05-27 06:47:28 51°13.928 2°55.593 283.4 1.7 95 -999
2005-05-27 06:47:32 51°13.928 2°55.594 284.6 1.1 98 -999
2005-05-27 06:47:38 51°13.928 2°55.594 286.4 0.2 62 -999
2005-05-27 06:47:42 51°13.928 2°55.592 289.8 0.9 292 -999
2005-05-27 06:47:48 51°13.93 2°55.587 295.1 0.9 292 -999
2005-05-27 06:47:53 51°13.932 2°55.583 301.9 2.5 299 -999
2005-05-27 06:47:58 51°13.935 2°55.577 309.1 2.5 299 -999
2005-05-27 06:48:03 51°13.939 2°55.57 313.2 3.6 309 -999
2005-05-27 06:48:08 51°13.944 2°55.563 316.9 3.6 309 -999
2005-05-27 06:48:13 51°13.949 2°55.556 321.2 4.7 317 -999
2005-05-27 06:48:18 51°13.954 2°55.55 324.1 4.9 320 9.4
2005-05-27 06:48:22 51°13.96 2°55.544 326.5 5.3 324 9.4
2005-05-27 06:48:28 51°13.969 2°55.535 328.2 5.8 324 9.4
2005-05-27 06:48:33 51°13.977 2°55.527 329.3 5.8 324 9.3
2005-05-27 06:48:38 51°13.986 2°55.519 330.5 7.1 329 9.3
2005-05-27 06:48:43 51°13.995 2°55.511 331.8 7.1 329 9.4
2005-05-27 06:48:47 51°14.003 2°55.503 333.3 7.5 330 9.3
2005-05-27 06:48:53 51°14.015 2°55.494 334.5 7.8 331 9.3
2005-05-27 06:48:57 51°14.024 2°55.487 335.8 8.1 333 9
2005-05-27 06:49:02 51°14.034 2°55.479 337.7 8.3 334 8.8
2005-05-27 06:49:08 51°14.046 2°55.47 338.6 8.4 334 9.7
2005-05-27 06:49:12 51°14.056 2°55.462 338.9 8.7 334 9.6
2005-05-27 06:49:17 51°14.067 2°55.453 338.9 8.9 335 9.6
2005-05-27 06:49:22 51°14.077 2°55.446 339.3 9 335 9.7
2005-05-27 06:49:28 51°14.092 2°55.436 340.5 9 337 9.8
2005-05-27 06:49:32 51°14.101 2°55.43 341.4 9.1 337 9.7
2005-05-27 06:49:38 51°14.115 2°55.421 341.9 9.2 338 9.9
2005-05-27 06:49:42 51°14.124 2°55.415 342.3 9.3 338 9.9
2005-05-27 06:49:48 51°14.139 2°55.405 342.4 9.3 338 10
2005-05-27 06:49:52 51°14.15 2°55.397 342 9.4 337 10
2005-05-27 06:49:58 51°14.162 2°55.387 341.1 9.4 337 10
2005-05-27 06:50:02 51°14.172 2°55.38 339.5 9.5 334 9.9
2005-05-27 06:50:07 51°14.185 2°55.368 338.1 9.5 332 10
2005-05-27 06:50:12 51°14.196 2°55.358 336.6 9.5 331 10
2005-05-27 06:50:18 51°14.209 2°55.346 335.3 9.5 331 10.1
2005-05-27 06:50:22 51°14.219 2°55.335 333.6 9.5 331 10.5
2005-05-27 06:50:28 51°14.232 2°55.321 331.8 9.8 326 10.2
2005-05-27 06:50:32 51°14.241 2°55.309 330.1 9.8 326 10.3
2005-05-27 06:50:38 51°14.253 2°55.294 327.8 10 323 9.9
2005-05-27 06:50:43 51°14.263 2°55.28 326.2 10 323 9.9
2005-05-27 06:50:48 51°14.274 2°55.264 324.1 10 323 9.7
2005-05-27 06:50:52 51°14.283 2°55.25 321.9 10.1 316 9.7
2005-05-27 06:50:58 51°14.293 2°55.232 319.6 10.2 314 9.6
2005-05-27 06:51:03 51°14.302 2°55.214 317.9 10.3 312 9.5
2005-05-27 06:51:08 51°14.312 2°55.196 316.1 10.3 310 9.5
2005-05-27 06:51:12 51°14.319 2°55.18 313.9 10.3 310 9.5
2005-05-27 06:51:17 51°14.328 2°55.162 312.1 10.4 308 10
2005-05-27 06:51:23 51°14.338 2°55.141 311.3 10.4 308 10
2005-05-27 06:51:28 51°14.348 2°55.122 311.4 10.8 308 9.9
2005-05-27 06:51:32 51°14.356 2°55.105 312.4 10.8 308 9.9
2005-05-27 06:51:38 51°14.366 2°55.083 312.3 10.9 307 10.1
2005-05-27 06:51:42 51°14.373 2°55.065 310.6 11.1 305 9.7
2005-05-27 06:51:48 51°14.382 2°55.041 308.6 11.2 303 10
2005-05-27 06:51:53 51°14.39 2°55.02 307 11.2 303 10.1
2005-05-27 06:51:57 51°14.396 2°54.999 305 11.4 299 10
2005-05-27 06:52:02 51°14.402 2°54.979 303.4 11.4 296 10
2005-05-27 06:52:08 51°14.409 2°54.951 301 11.3 295 10.1
2005-05-27 06:52:12 51°14.414 2°54.93 298.9 11.3 291 10.1
2005-05-27 06:52:18 51°14.42 2°54.904 297.5 11.3 289 10.2
2005-05-27 06:52:22 51°14.424 2°54.885 296.4 11.3 289 10.2
2005-05-27 06:52:28 51°14.43 2°54.856 296 11.4 288 10.1
2005-05-27 06:52:32 51°14.434 2°54.835 295.5 11.4 288 10.1
2005-05-27 06:52:38 51°14.439 2°54.808 296.1 11.4 288 10.1
2005-05-27 06:52:42 51°14.443 2°54.789 297 11.5 288 10.1
2005-05-27 06:52:48 51°14.448 2°54.758 296.4 11.5 288 10.1
2005-05-27 06:52:52 51°14.451 2°54.734 293.3 11.9 283 10
2005-05-27 06:52:58 51°14.452 2°54.705 289.5 12 279 10
2005-05-27 06:53:03 51°14.453 2°54.678 285.1 12 279 10
2005-05-27 06:53:08 51°14.454 2°54.65 281.7 12.4 273 10
2005-05-27 06:53:12 51°14.455 2°54.625 280.1 12.5 273 10
2005-05-27 06:53:18 51°14.455 2°54.593 279.2 12.5 273 10
2005-05-27 06:53:22 51°14.456 2°54.565 277.9 13.4 271 10
2005-05-27 06:53:28 51°14.456 2°54.532 277.6 13.6 271 10
2005-05-27 06:53:32 51°14.456 2°54.504 276.2 13.9 269 10.1
2005-05-27 06:53:38 51°14.455 2°54.47 275.2 13.9 269 9.9
2005-05-27 06:53:43 51°14.454 2°54.438 273.8 14.2 267 9.8
2005-05-27 06:53:48 51°14.452 2°54.407 272.9 14.2 267 9.7
2005-05-27 06:53:52 51°14.45 2°54.378 271.8 14.4 265 9.6
2005-05-27 06:53:58 51°14.447 2°54.344 269.4 14.4 264 9.5
2005-05-27 06:54:02 51°14.443 2°54.318 266.4 14.4 264 9.5
2005-05-27 06:54:08 51°14.438 2°54.281 264.2 14.5 258 9.2
2005-05-27 06:54:12 51°14.434 2°54.252 262.1 14.5 258 9.2
2005-05-27 06:54:18 51°14.428 2°54.218 260.6 14.5 258 9.1
2005-05-27 06:54:22 51°14.424 2°54.193 258.8 14.6 255 9.1
2005-05-27 06:54:28 51°14.415 2°54.153 258 14.6 253 9.1
2005-05-27 06:54:33 51°14.409 2°54.126 256.9 14.6 251 9.2
2005-05-27 06:54:38 51°14.402 2°54.095 254.7 14.6 250 9.1
2005-05-27 06:54:42 51°14.396 2°54.07 253 14.7 249 9.2
2005-05-27 06:54:48 51°14.386 2°54.033 251.8 14.8 248 9.2
2005-05-27 06:54:52 51°14.379 2°54.006 250.5 14.7 247 9.2
2005-05-27 06:54:56 51°14.372 2°53.984 248.9 14.8 245 9.2
2005-05-27 06:55:03 51°14.36 2°53.946 247.7 14.8 244 9.2
2005-05-27 06:55:07 51°14.352 2°53.92 246.6 14.8 244 9.2
2005-05-27 06:55:12 51°14.342 2°53.89 245.6 14.8 243 9.2
2005-05-27 06:55:18 51°14.332 2°53.858 244.8 14.8 243 9.2
2005-05-27 06:55:22 51°14.322 2°53.832 243.8 14.8 243 9.1
2005-05-27 06:55:28 51°14.311 2°53.802 242.8 14.8 240 9.2
2005-05-27 06:55:32 51°14.301 2°53.777 241.9 14.8 239 9.1
2005-05-27 06:55:38 51°14.29 2°53.746 240.7 14.8 238 9.1
2005-05-27 06:55:42 51°14.281 2°53.723 240.1 14.8 237 9.1
2005-05-27 06:55:48 51°14.266 2°53.687 239.5 14.8 237 9.2
2005-05-27 06:55:52 51°14.257 2°53.665 239.4 14.7 237 9.1
2005-05-27 06:55:58 51°14.245 2°53.635 239 14.7 237 9.2
2005-05-27 06:56:03 51°14.235 2°53.607 239.2 14.7 237 9.1
2005-05-27 06:56:08 51°14.224 2°53.58 239.8 14.7 237 9.1
2005-05-27 06:56:12 51°14.214 2°53.555 240.2 14.7 237 9.1
2005-05-27 06:56:16 51°14.206 2°53.532 241.3 14.7 237 9.1
2005-05-27 06:56:23 51°14.193 2°53.496 241.8 14.8 239 9.1
2005-05-27 06:56:28 51°14.182 2°53.468 241.8 14.8 240 9.1
2005-05-27 06:56:32 51°14.173 2°53.444 241.9 14.7 239 9.2
2005-05-27 06:56:38 51°14.161 2°53.414 241.3 14.7 239 9.2
2005-05-27 06:56:42 51°14.153 2°53.392 241 14.8 239 9.2
2005-05-27 06:56:48 51°14.14 2°53.358 240.9 14.8 239 9.2
2005-05-27 06:56:52 51°14.13 2°53.333 241 14.8 239 9.3
2005-05-27 06:56:58 51°14.118 2°53.302 241 14.8 238 9.2
2005-05-27 06:57:02 51°14.11 2°53.279 240.9 14.8 238 9.3
2005-05-27 06:57:07 51°14.098 2°53.249 240.9 14.8 239 9.3
2005-05-27 06:57:12 51°14.088 2°53.221 240.9 14.8 239 9.3
2005-05-27 06:57:18 51°14.076 2°53.19 241.5 14.7 239 9.3
2005-05-27 06:57:22 51°14.067 2°53.165 241.9 14.7 239 9.4
2005-05-27 06:57:28 51°14.055 2°53.134 241.9 14.7 239 9.5
2005-05-27 06:57:33 51°14.045 2°53.106 241.9 14.8 239 9.4
2005-05-27 06:57:38 51°14.034 2°53.078 241.8 14.8 239 9.5
2005-05-27 06:57:42 51°14.026 2°53.057 241.3 14.7 238 9.5
2005-05-27 06:57:48 51°14.013 2°53.023 240.4 14.7 238 9.5
2005-05-27 06:57:52 51°14.003 2°52.998 240.3 14.8 239 9.6
2005-05-27 06:57:58 51°13.991 2°52.968 240.2 14.8 239 9.6
2005-05-27 06:58:03 51°13.98 2°52.94 240.2 14.8 239 9.6
2005-05-27 06:58:08 51°13.97 2°52.913 240.4 14.7 238 9.6
2005-05-27 06:58:12 51°13.96 2°52.887 240.2 14.7 238 9.6
2005-05-27 06:58:18 51°13.948 2°52.857 240.6 14.8 239 9.7
2005-05-27 06:58:23 51°13.938 2°52.83 240.8 14.8 239 9.7
2005-05-27 06:58:28 51°13.927 2°52.802 240.7 14.8 239 9.7
2005-05-27 06:58:33 51°13.917 2°52.774 240.8 14.8 239 9.7
2005-05-27 06:58:38 51°13.906 2°52.746 240.8 14.7 239 9.8
2005-05-27 06:58:42 51°13.897 2°52.724 240.7 14.7 239 9.8
2005-05-27 06:58:48 51°13.884 2°52.691 240.5 14.7 239 9.8
2005-05-27 06:58:52 51°13.875 2°52.666 240.7 14.7 239 9.9
2005-05-27 06:58:57 51°13.866 2°52.641 240.9 14.7 239 9.8
2005-05-27 06:59:02 51°13.854 2°52.61 241.2 14.7 239 9.9
2005-05-27 06:59:07 51°13.843 2°52.581 241.2 14.7 239 9.9
2005-05-27 06:59:12 51°13.833 2°52.553 241.5 14.7 239 9.9
2005-05-27 06:59:18 51°13.821 2°52.522 241.4 14.7 239 9.8
2005-05-27 06:59:22 51°13.813 2°52.5 241 14.7 239 9.8
2005-05-27 06:59:27 51°13.801 2°52.47 241 14.6 238 9.9
2005-05-27 06:59:32 51°13.79 2°52.443 240.9 14.6 238 9.9
2005-05-27 06:59:38 51°13.779 2°52.412 240.9 14.6 238 9.9
2005-05-27 06:59:42 51°13.77 2°52.39 240.9 14.6 238 9.9
2005-05-27 06:59:48 51°13.758 2°52.357 241.3 14.7 239 9.9
2005-05-27 06:59:52 51°13.748 2°52.332 241.5 14.7 239 10
2005-05-27 06:59:56 51°13.74 2°52.31 241.7 14.7 239 9.9
2005-05-27 07:00:03 51°13.726 2°52.273 241.7 14.7 239 9.9
2005-05-27 07:00:08 51°13.716 2°52.245 241.6 14.7 239 10
2005-05-27 07:00:12 51°13.706 2°52.219 241.6 14.7 239 10
2005-05-27 07:00:18 51°13.695 2°52.189 241.6 14.7 239 10
2005-05-27 07:00:22 51°13.687 2°52.166 241.6 14.7 239 10
2005-05-27 07:00:28 51°13.674 2°52.133 241.6 14.7 239 10
2005-05-27 07:00:33 51°13.664 2°52.105 241.3 14.7 239 10
2005-05-27 07:00:37 51°13.654 2°52.08 241.3 14.7 239 10
2005-05-27 07:00:43 51°13.643 2°52.05 241.6 14.7 239 10
2005-05-27 07:00:48 51°13.633 2°52.022 241.9 14.7 239 10
2005-05-27 07:00:52 51°13.623 2°51.996 242.3 14.7 239 10
2005-05-27 07:00:58 51°13.612 2°51.965 242.6 14.7 239 10
2005-05-27 07:01:02 51°13.604 2°51.941 242.8 14.7 240 10
2005-05-27 07:01:08 51°13.592 2°51.907 243.1 14.7 240 10
2005-05-27 07:01:12 51°13.583 2°51.882 242.9 14.7 240 10
2005-05-27 07:01:18 51°13.572 2°51.852 242.3 14.7 239 10
2005-05-27 07:01:22 51°13.563 2°51.83 242 14.7 239 10
2005-05-27 07:01:28 51°13.551 2°51.797 241.7 14.7 239 10
2005-05-27 07:01:32 51°13.542 2°51.772 241.7 14.6 239 10.1
2005-05-27 07:01:38 51°13.53 2°51.741 241.7 14.6 239 10
2005-05-27 07:01:43 51°13.52 2°51.713 241.8 14.6 239 10
2005-05-27 07:01:48 51°13.51 2°51.685 242.3 14.6 239 10.1
2005-05-27 07:01:53 51°13.5 2°51.657 242.3 14.6 239 10
2005-05-27 07:01:58 51°13.489 2°51.63 242.4 14.7 240 10.1
2005-05-27 07:02:02 51°13.48 2°51.605 242.4 14.7 240 10.2
2005-05-27 07:02:08 51°13.469 2°51.574 242.7 14.7 240 10.2
2005-05-27 07:02:12 51°13.46 2°51.549 242.5 14.7 240 10.2
2005-05-27 07:02:18 51°13.448 2°51.519 241.9 14.7 240 10.2
2005-05-27 07:02:22 51°13.44 2°51.496 241.6 14.7 240 10.2
2005-05-27 07:02:28 51°13.427 2°51.463 241.6 14.7 240 10.2
2005-05-27 07:02:32 51°13.418 2°51.438 241.6 14.7 240 10.2
2005-05-27 07:02:38 51°13.407 2°51.407 241.9 14.7 239 10.2
2005-05-27 07:02:42 51°13.398 2°51.384 242.2 14.7 240 10.2
2005-05-27 07:02:48 51°13.386 2°51.351 243 14.6 240 10.2
2005-05-27 07:02:52 51°13.377 2°51.326 243 14.6 240 10.2
2005-05-27 07:02:56 51°13.369 2°51.303 242.6 14.6 240 10.2
2005-05-27 07:03:02 51°13.357 2°51.27 242.5 14.6 240 10.2
2005-05-27 07:03:08 51°13.345 2°51.239 242.3 14.6 239 10.2
2005-05-27 07:03:13 51°13.335 2°51.211 242.2 14.6 239 10.3
2005-05-27 07:03:18 51°13.325 2°51.184 241.7 14.6 239 10.2
2005-05-27 07:03:22 51°13.315 2°51.158 241.9 14.6 240 10.3
2005-05-27 07:03:28 51°13.304 2°51.128 242.3 14.6 240 10.3
2005-05-27 07:03:32 51°13.295 2°51.103 242.3 14.6 239 10.3
2005-05-27 07:03:38 51°13.283 2°51.072 241.8 14.6 240 10.3
2005-05-27 07:03:42 51°13.275 2°51.05 241.8 14.6 240 10.3
2005-05-27 07:03:48 51°13.263 2°51.016 241.5 14.7 239 10.3
2005-05-27 07:03:52 51°13.254 2°50.991 241.7 14.7 240 10.3
2005-05-27 07:03:58 51°13.242 2°50.961 242.1 14.6 240 10.4
2005-05-27 07:04:02 51°13.233 2°50.935 242.3 14.6 240 10.4
2005-05-27 07:04:08 51°13.222 2°50.904 242.3 14.7 240 10.3
2005-05-27 07:04:12 51°13.213 2°50.878 242.4 14.7 240 10.3
2005-05-27 07:04:18 51°13.202 2°50.846 242.7 14.6 240 10.3
2005-05-27 07:04:22 51°13.194 2°50.824 242.5 14.7 240 10.4
2005-05-27 07:04:27 51°13.182 2°50.793 242.5 14.7 240 10.4
2005-05-27 07:04:32 51°13.172 2°50.766 242.4 14.7 240 10.4
2005-05-27 07:04:36 51°13.164 2°50.743 242.4 14.6 240 10.4
2005-05-27 07:04:43 51°13.151 2°50.707 242.3 14.7 240 10.4
2005-05-27 07:04:48 51°13.141 2°50.679 242.5 14.6 240 10.4
2005-05-27 07:04:52 51°13.131 2°50.655 242.5 14.6 240 10.4
2005-05-27 07:04:58 51°13.12 2°50.624 242.3 14.6 240 10.4
2005-05-27 07:05:02 51°13.111 2°50.599 242.3 14.6 240 10.5
2005-05-27 07:05:08 51°13.1 2°50.569 242.3 14.6 240 10.4
2005-05-27 07:05:12 51°13.091 2°50.544 242.3 14.6 240 10.4
2005-05-27 07:05:18 51°13.079 2°50.513 242.2 14.6 239 10.5
2005-05-27 07:05:22 51°13.071 2°50.491 242 14.6 239 10.4
2005-05-27 07:05:28 51°13.058 2°50.457 241.7 14.6 239 10.5
2005-05-27 07:05:32 51°13.049 2°50.432 241.7 14.6 240 10.5
2005-05-27 07:05:38 51°13.038 2°50.401 241.9 14.7 239 10.5
2005-05-27 07:05:42 51°13.029 2°50.379 241.9 14.7 240 10.5
2005-05-27 07:05:48 51°13.017 2°50.345 242.3 14.7 240 10.5
2005-05-27 07:05:52 51°13.008 2°50.32 242.2 14.7 240 10.5
2005-05-27 07:05:58 51°12.997 2°50.289 242.2 14.6 239 10.5
2005-05-27 07:06:03 51°12.986 2°50.262 242.1 14.6 239 10.5
2005-05-27 07:06:07 51°12.977 2°50.237 242.1 14.6 239 10.6
2005-05-27 07:06:12 51°12.966 2°50.21 241.7 14.6 239 10.6
2005-05-27 07:06:18 51°12.955 2°50.18 241.6 14.6 239 10.6
2005-05-27 07:06:22 51°12.947 2°50.157 241.6 14.6 239 10.6
2005-05-27 07:06:28 51°12.934 2°50.122 241.9 14.7 239 10.6
2005-05-27 07:06:32 51°12.925 2°50.097 242.3 14.7 239 10.6
2005-05-27 07:06:38 51°12.914 2°50.066 242.4 14.7 240 10.6
2005-05-27 07:06:42 51°12.906 2°50.043 242.6 14.7 240 10.6
2005-05-27 07:06:48 51°12.894 2°50.01 242.7 14.7 240 10.6
2005-05-27 07:06:52 51°12.884 2°49.985 242.7 14.6 240 10.6
2005-05-27 07:06:58 51°12.873 2°49.954 242.5 14.7 240 10.6
2005-05-27 07:07:02 51°12.865 2°49.932 242.4 14.7 240 10.6
2005-05-27 07:07:08 51°12.853 2°49.898 242.9 14.6 240 10.7
2005-05-27 07:07:12 51°12.844 2°49.873 242.9 14.6 240 10.7
2005-05-27 07:07:17 51°12.834 2°49.845 242.7 14.7 240 10.7
2005-05-27 07:07:22 51°12.825 2°49.82 242.6 14.7 240 10.7
2005-05-27 07:07:27 51°12.814 2°49.789 242.6 14.7 240 10.7
2005-05-27 07:07:32 51°12.803 2°49.761 243 14.6 240 10.7
2005-05-27 07:07:38 51°12.792 2°49.73 242.9 14.6 240 10.7
2005-05-27 07:07:43 51°12.782 2°49.702 242.4 14.6 240 10.7
2005-05-27 07:07:48 51°12.771 2°49.67 242.3 14.6 240 10.7
2005-05-27 07:07:52 51°12.763 2°49.648 242.4 14.6 240 10.7
2005-05-27 07:07:58 51°12.752 2°49.617 242.6 14.6 240 10.7
2005-05-27 07:08:02 51°12.743 2°49.592 242.6 14.6 240 10.7
2005-05-27 07:08:08 51°12.731 2°49.561 242.4 14.7 240 10.7
2005-05-27 07:08:12 51°12.722 2°49.536 242.2 14.7 240 10.7
2005-05-27 07:08:18 51°12.711 2°49.506 242 14.6 240 10.7
2005-05-27 07:08:22 51°12.703 2°49.484 242.2 14.6 240 10.8
2005-05-27 07:08:28 51°12.69 2°49.45 242.3 14.6 240 10.7
2005-05-27 07:08:32 51°12.681 2°49.425 242.4 14.6 240 10.8
2005-05-27 07:08:38 51°12.67 2°49.394 242.4 14.6 240 10.8
2005-05-27 07:08:42 51°12.661 2°49.368 242.6 14.6 240 10.8
2005-05-27 07:08:48 51°12.65 2°49.338 242.6 14.6 240 10.8
2005-05-27 07:08:52 51°12.641 2°49.312 242.6 14.6 240 10.8
2005-05-27 07:08:57 51°12.632 2°49.287 242.9 14.6 240 10.8
2005-05-27 07:09:02 51°12.622 2°49.259 242.9 14.6 240 10.8
2005-05-27 07:09:08 51°12.61 2°49.226 242.4 14.7 240 10.9
2005-05-27 07:09:12 51°12.6 2°49.201 242.4 14.7 240 10.9
2005-05-27 07:09:18 51°12.589 2°49.17 242.2 14.7 240 10.9
2005-05-27 07:09:22 51°12.58 2°49.145 242.1 14.6 240 10.9
2005-05-27 07:09:28 51°12.569 2°49.114 242.3 14.7 240 10.9
2005-05-27 07:09:32 51°12.56 2°49.089 242.3 14.6 240 10.9
2005-05-27 07:09:36 51°12.552 2°49.067 242.7 14.6 240 10.8
2005-05-27 07:09:43 51°12.539 2°49.031 242.5 14.6 240 10.9
2005-05-27 07:09:48 51°12.528 2°49.003 242.4 14.6 239 10.8
2005-05-27 07:09:52 51°12.519 2°48.978 241.7 14.6 240 10.8
2005-05-27 07:09:58 51°12.508 2°48.947 242.1 14.6 240 10.8
2005-05-27 07:10:02 51°12.499 2°48.925 242.1 14.6 240 10.8
2005-05-27 07:10:08 51°12.487 2°48.892 242.3 14.6 240 10.9
2005-05-27 07:10:12 51°12.478 2°48.867 242.4 14.6 240 10.8
2005-05-27 07:10:18 51°12.466 2°48.836 242.1 14.6 239 10.8
2005-05-27 07:10:22 51°12.457 2°48.811 242 14.6 239 10.8
2005-05-27 07:10:28 51°12.446 2°48.781 241.8 14.6 239 10.7
2005-05-27 07:10:32 51°12.437 2°48.756 241.8 14.6 239 10.9
2005-05-27 07:10:38 51°12.426 2°48.725 242 14.6 240 10.9
2005-05-27 07:10:42 51°12.416 2°48.699 242.1 14.6 240 10.8
2005-05-27 07:10:47 51°12.406 2°48.672 242.7 14.6 240 10.8
2005-05-27 07:10:52 51°12.397 2°48.647 242.8 14.6 240 10.8
2005-05-27 07:10:58 51°12.385 2°48.614 242.4 14.6 240 10.9
2005-05-27 07:11:02 51°12.377 2°48.591 242.4 14.6 240 10.9
2005-05-27 07:11:08 51°12.364 2°48.558 242.4 14.6 240 10.9
2005-05-27 07:11:12 51°12.356 2°48.533 242.6 14.6 240 10.9
2005-05-27 07:11:18 51°12.344 2°48.502 242.9 14.6 240 10.9
2005-05-27 07:11:23 51°12.334 2°48.474 242.8 14.6 240 10.9
2005-05-27 07:11:28 51°12.324 2°48.446 242.5 14.6 239 10.9
2005-05-27 07:11:32 51°12.315 2°48.422 242.3 14.6 239 10.9
2005-05-27 07:11:38 51°12.304 2°48.391 242.3 14.6 240 10.9
2005-05-27 07:11:42 51°12.296 2°48.368 242.7 14.6 240 10.9
2005-05-27 07:11:48 51°12.283 2°48.335 242.7 14.6 240 10.9
2005-05-27 07:11:52 51°12.274 2°48.31 242.7 14.6 240 10.9
2005-05-27 07:11:58 51°12.263 2°48.279 242.5 14.6 240 10.8
2005-05-27 07:12:02 51°12.255 2°48.257 242.3 14.6 240 10.9
2005-05-27 07:12:08 51°12.243 2°48.223 242.4 14.6 240 10.8
2005-05-27 07:12:12 51°12.233 2°48.198 242.6 14.6 240 10.9
2005-05-27 07:12:18 51°12.222 2°48.167 242.6 14.6 240 10.9
2005-05-27 07:12:22 51°12.213 2°48.142 243 14.6 240 10.8
2005-05-27 07:12:28 51°12.202 2°48.111 243 14.6 240 10.9
2005-05-27 07:12:32 51°12.193 2°48.086 242.8 14.7 240 10.9
2005-05-27 07:12:38 51°12.181 2°48.055 242.5 14.7 240 10.9
2005-05-27 07:12:42 51°12.173 2°48.033 242.3 14.7 240 10.9
2005-05-27 07:12:47 51°12.162 2°48.002 242.3 14.7 240 10.9
2005-05-27 07:12:53 51°12.151 2°47.971 242.4 14.7 240 10.8
2005-05-27 07:12:58 51°12.141 2°47.943 242.4 14.7 240 10.9
2005-05-27 07:13:03 51°12.13 2°47.915 242.8 14.7 240 10.9
2005-05-27 07:13:07 51°12.121 2°47.89 242.8 14.7 240 10.9
2005-05-27 07:13:13 51°12.11 2°47.859 242.5 14.7 240 10.8
2005-05-27 07:13:18 51°12.099 2°47.831 242.4 14.7 240 10.8
2005-05-27 07:13:23 51°12.089 2°47.803 242.4 14.7 240 10.8
2005-05-27 07:13:28 51°12.079 2°47.775 242.5 14.7 240 10.8
2005-05-27 07:13:32 51°12.072 2°47.752 243.1 14.7 240 10.8
2005-05-27 07:13:38 51°12.061 2°47.717 244.4 14.7 243 10.8
2005-05-27 07:13:42 51°12.054 2°47.693 246.2 14.7 243 10.8
2005-05-27 07:13:48 51°12.043 2°47.658 246.8 14.7 244 10.8
2005-05-27 07:13:52 51°12.035 2°47.632 247.1 14.7 244 10.8
2005-05-27 07:13:58 51°12.025 2°47.6 247.8 14.7 244 10.8
2005-05-27 07:14:02 51°12.018 2°47.576 247.8 14.7 244 10.8
2005-05-27 07:14:08 51°12.008 2°47.541 247.7 14.7 244 10.8
2005-05-27 07:14:12 51°12 2°47.514 248 14.7 244 10.9
2005-05-27 07:14:18 51°11.991 2°47.482 248.2 14.7 245 10.9
2005-05-27 07:14:22 51°11.983 2°47.455 248.2 14.7 245 10.9
2005-05-27 07:14:28 51°11.972 2°47.42 248.1 14.7 245 10.8
2005-05-27 07:14:32 51°11.965 2°47.397 248.1 14.7 245 10.9
2005-05-27 07:14:37 51°11.958 2°47.37 247.9 14.7 245 10.9
2005-05-27 07:14:42 51°11.949 2°47.341 247.9 14.7 245 10.9
2005-05-27 07:14:48 51°11.938 2°47.306 247.7 14.7 245 10.9
2005-05-27 07:14:52 51°11.93 2°47.279 247.5 14.7 244 10.9
2005-05-27 07:14:58 51°11.92 2°47.247 247.4 14.7 244 10.9
2005-05-27 07:15:02 51°11.912 2°47.22 247.4 14.7 244 10.8
2005-05-27 07:15:08 51°11.902 2°47.188 247.3 14.7 244 10.8
2005-05-27 07:15:12 51°11.894 2°47.162 247 14.7 244 10.8
2005-05-27 07:15:18 51°11.884 2°47.13 247 14.7 244 10.8
2005-05-27 07:15:22 51°11.877 2°47.107 246.8 14.7 244 10.8
2005-05-27 07:15:28 51°11.866 2°47.072 246.7 14.7 244 10.8
2005-05-27 07:15:32 51°11.858 2°47.046 246.7 14.7 244 10.8
2005-05-27 07:15:38 51°11.848 2°47.014 247 14.7 244 10.8
2005-05-27 07:15:42 51°11.841 2°46.99 247.4 14.7 244 10.8
2005-05-27 07:15:47 51°11.831 2°46.958 247.6 14.7 245 10.8
2005-05-27 07:15:52 51°11.823 2°46.928 247.6 14.7 245 10.8
2005-05-27 07:15:58 51°11.813 2°46.896 248 14.7 245 10.8
2005-05-27 07:16:02 51°11.806 2°46.873 247.8 14.7 245 10.9
2005-05-27 07:16:08 51°11.796 2°46.838 247.5 14.7 245 10.9
2005-05-27 07:16:12 51°11.788 2°46.811 247.5 14.7 245 10.9
2005-05-27 07:16:18 51°11.778 2°46.779 247.6 14.7 245 10.9
2005-05-27 07:16:22 51°11.771 2°46.755 247.6 14.7 245 10.9
2005-05-27 07:16:28 51°11.761 2°46.72 247.9 14.7 245 10.9
2005-05-27 07:16:32 51°11.753 2°46.693 248.2 14.7 245 10.9
2005-05-27 07:16:36 51°11.746 2°46.67 247.9 14.7 245 10.9
2005-05-27 07:16:43 51°11.734 2°46.632 247.6 14.7 244 11
2005-05-27 07:16:48 51°11.726 2°46.603 247.5 14.7 244 10.9
2005-05-27 07:16:53 51°11.717 2°46.573 247.5 14.7 244 10.9
2005-05-27 07:16:56 51°11.711 2°46.553 247.4 14.7 245 11
2005-05-27 07:17:02 51°11.701 2°46.521 247.3 14.7 245 11
2005-05-27 07:17:08 51°11.69 2°46.486 247.2 14.7 244 11
2005-05-27 07:17:12 51°11.682 2°46.46 246.8 14.7 244 10.9
2005-05-27 07:17:18 51°11.672 2°46.428 246.7 14.7 244 11
2005-05-27 07:17:22 51°11.664 2°46.401 246.7 14.7 244 10.9
2005-05-27 07:17:28 51°11.654 2°46.369 246.9 14.7 244 11
2005-05-27 07:17:33 51°11.645 2°46.34 247.1 14.7 244 11
2005-05-27 07:17:38 51°11.636 2°46.311 247.2 14.7 244 10.9
2005-05-27 07:17:42 51°11.629 2°46.288 246.9 14.7 244 10.9
2005-05-27 07:17:48 51°11.618 2°46.253 246.9 14.7 244 10.9
2005-05-27 07:17:52 51°11.61 2°46.227 246.8 14.7 244 10.9
2005-05-27 07:17:57 51°11.602 2°46.197 247 14.7 245 10.9
2005-05-27 07:18:03 51°11.594 2°46.164 248 14.7 245 10.9
2005-05-27 07:18:08 51°11.586 2°46.134 249.9 14.7 248 10.9
2005-05-27 07:18:12 51°11.58 2°46.106 251.5 14.7 248 10.9
2005-05-27 07:18:18 51°11.573 2°46.073 252.8 14.7 251 10.9
2005-05-27 07:18:22 51°11.567 2°46.048 253.8 14.7 251 10.9
2005-05-27 07:18:28 51°11.559 2°46.011 254.6 14.7 251 10.9
2005-05-27 07:18:33 51°11.553 2°45.981 255 14.7 251 10.9
2005-05-27 07:18:37 51°11.547 2°45.953 255.1 14.7 252 10.9
2005-05-27 07:18:43 51°11.54 2°45.919 255.2 14.7 252 10.9
2005-05-27 07:18:47 51°11.534 2°45.892 255.1 14.7 251 10.9
2005-05-27 07:18:52 51°11.527 2°45.861 254.9 14.7 251 10.9
2005-05-27 07:18:58 51°11.52 2°45.827 254.7 14.7 251 10.9
2005-05-27 07:19:02 51°11.515 2°45.803 254.7 14.7 251 10.9
2005-05-27 07:19:08 51°11.507 2°45.766 254.5 14.7 251 10.9
2005-05-27 07:19:12 51°11.501 2°45.738 254.2 14.7 251 11
2005-05-27 07:19:18 51°11.493 2°45.705 254.3 14.7 251 10.9
2005-05-27 07:19:22 51°11.488 2°45.68 254.3 14.7 251 11
2005-05-27 07:19:28 51°11.48 2°45.644 254.3 14.7 251 11
2005-05-27 07:19:32 51°11.474 2°45.616 254.4 14.7 251 11
2005-05-27 07:19:38 51°11.467 2°45.582 254.4 14.7 250 11
2005-05-27 07:19:42 51°11.461 2°45.558 254.3 14.7 250 11
2005-05-27 07:19:48 51°11.453 2°45.521 254.1 14.7 250 10.9
2005-05-27 07:19:52 51°11.447 2°45.494 254 14.7 251 11
2005-05-27 07:19:58 51°11.439 2°45.46 253.9 14.7 250 11
2005-05-27 07:20:02 51°11.434 2°45.435 253.8 14.7 250 11
2005-05-27 07:20:08 51°11.426 2°45.398 254.3 14.7 251 11
2005-05-27 07:20:12 51°11.421 2°45.371 254.7 14.7 251 11
2005-05-27 07:20:18 51°11.414 2°45.336 255.1 14.7 251 11
2005-05-27 07:20:22 51°11.408 2°45.312 255.1 14.7 251 11
2005-05-27 07:20:28 51°11.4 2°45.275 255.3 14.7 251 11
2005-05-27 07:20:32 51°11.394 2°45.247 254.9 14.7 251 11
2005-05-27 07:20:38 51°11.387 2°45.213 254.8 14.7 251 11
2005-05-27 07:20:42 51°11.382 2°45.189 254.9 14.7 251 11
2005-05-27 07:20:48 51°11.374 2°45.151 254.9 14.8 251 11
2005-05-27 07:20:52 51°11.368 2°45.124 255 14.8 251 11
2005-05-27 07:20:58 51°11.361 2°45.09 255 14.8 251 11
2005-05-27 07:21:02 51°11.356 2°45.065 255 14.8 251 11
2005-05-27 07:21:08 51°11.348 2°45.028 255.4 14.8 252 11
2005-05-27 07:21:12 51°11.343 2°45 255.3 14.8 252 11.1
2005-05-27 07:21:17 51°11.337 2°44.969 256 14.8 253 11.1
2005-05-27 07:21:22 51°11.332 2°44.94 256.4 14.8 253 11.1
2005-05-27 07:21:28 51°11.325 2°44.903 257.1 14.8 253 11
2005-05-27 07:21:32 51°11.32 2°44.875 257.5 14.8 254 11.1
2005-05-27 07:21:38 51°11.313 2°44.84 257.6 14.8 253 11.1
2005-05-27 07:21:42 51°11.309 2°44.815 257.6 14.8 253 11.1
2005-05-27 07:21:48 51°11.302 2°44.778 257.6 14.8 253 11.1
2005-05-27 07:21:52 51°11.297 2°44.75 257.6 14.8 254 11.1
2005-05-27 07:21:58 51°11.291 2°44.715 257.6 14.7 254 11
2005-05-27 07:22:02 51°11.286 2°44.69 257.6 14.7 254 11.1
2005-05-27 07:22:08 51°11.279 2°44.653 257.7 14.7 254 11.1
2005-05-27 07:22:13 51°11.274 2°44.622 257.9 14.8 254 11.1
2005-05-27 07:22:18 51°11.268 2°44.59 258 14.8 254 11.1
2005-05-27 07:22:22 51°11.263 2°44.565 258.1 14.8 254 11.1
2005-05-27 07:22:28 51°11.257 2°44.527 257.9 14.8 254 11.1
2005-05-27 07:22:32 51°11.251 2°44.499 257.7 14.8 254 11.1
2005-05-27 07:22:38 51°11.245 2°44.465 257.2 14.8 253 11.1
2005-05-27 07:22:42 51°11.24 2°44.436 257.2 14.8 254 11.1
2005-05-27 07:22:48 51°11.233 2°44.402 257.5 14.8 253 11.1
2005-05-27 07:22:52 51°11.228 2°44.374 257.3 14.8 253 11.1
2005-05-27 07:22:58 51°11.221 2°44.34 257.1 14.8 253 11.1
2005-05-27 07:23:03 51°11.216 2°44.308 257.2 14.8 253 11.1
2005-05-27 07:23:07 51°11.211 2°44.28 257.4 14.8 254 11.1
2005-05-27 07:23:12 51°11.206 2°44.251 257.6 14.8 254 11.2
2005-05-27 07:23:17 51°11.199 2°44.217 257.7 14.8 254 11.1
2005-05-27 07:23:23 51°11.193 2°44.183 257.2 14.8 254 11.1
2005-05-27 07:23:28 51°11.187 2°44.151 257.1 14.8 254 11.2
2005-05-27 07:23:33 51°11.181 2°44.12 257.2 14.8 254 11.2
2005-05-27 07:23:37 51°11.176 2°44.092 257.2 14.8 253 11.1
2005-05-27 07:23:42 51°11.171 2°44.064 257.3 14.8 254 11.2
2005-05-27 07:23:48 51°11.164 2°44.026 257.5 14.8 254 11.2
2005-05-27 07:23:52 51°11.159 2°43.998 257.3 14.8 254 11.2
2005-05-27 07:23:58 51°11.153 2°43.964 257.4 14.8 254 11.1
2005-05-27 07:24:02 51°11.148 2°43.935 257.4 14.8 254 11.2
2005-05-27 07:24:08 51°11.142 2°43.901 257.7 14.8 254 11.2
2005-05-27 07:24:12 51°11.137 2°43.873 257.9 14.8 254 11.2
2005-05-27 07:24:18 51°11.131 2°43.838 258.3 14.8 254 11.2
2005-05-27 07:24:23 51°11.126 2°43.807 258.5 14.8 254 11.2
2005-05-27 07:24:28 51°11.12 2°43.775 258.6 14.8 254 11.2
2005-05-27 07:24:32 51°11.115 2°43.747 258.5 -999 -999 11.2
2005-05-27 07:24:37 51°11.11 2°43.715 258 14.8 254 11.2
2005-05-27 07:24:43 51°11.104 2°43.681 257.6 14.8 254 11.2
2005-05-27 07:24:48 51°11.098 2°43.65 257.7 14.8 254 11.2
2005-05-27 07:24:52 51°11.093 2°43.621 257.6 14.7 254 11.2
2005-05-27 07:24:58 51°11.087 2°43.587 257.3 14.7 254 11.2
2005-05-27 07:25:03 51°11.081 2°43.556 257 14.8 254 11.2
2005-05-27 07:25:08 51°11.075 2°43.524 256.9 14.8 254 11.2
2005-05-27 07:25:12 51°11.07 2°43.496 257 14.8 254 11.2
2005-05-27 07:25:18 51°11.064 2°43.462 257.2 14.8 254 11.2
2005-05-27 07:25:22 51°11.059 2°43.433 257.4 14.8 254 11.2
2005-05-27 07:25:28 51°11.053 2°43.399 257.4 14.8 254 11.2
2005-05-27 07:25:32 51°11.048 2°43.371 257.7 14.8 254 11.2
2005-05-27 07:25:36 51°11.043 2°43.346 257.6 14.8 254 11.2
2005-05-27 07:25:43 51°11.036 2°43.305 257.1 14.8 254 11.2
2005-05-27 07:25:48 51°11.031 2°43.273 257.2 14.8 254 11.3
2005-05-27 07:25:52 51°11.026 2°43.245 257.4 14.8 254 11.3
2005-05-27 07:25:58 51°11.019 2°43.211 257.7 14.8 254 11.2
2005-05-27 07:26:03 51°11.014 2°43.179 257.6 -999 -999 11.2
2005-05-27 07:26:08 51°11.008 2°43.148 257.2 -999 -999 11.3
2005-05-27 07:26:12 51°11.002 2°43.12 256.9 -999 -999 11.3
2005-05-27 07:26:17 51°10.997 2°43.088 256.8 14.8 254 11.2
2005-05-27 07:26:22 51°10.992 2°43.06 257.1 14.8 254 11.3
2005-05-27 07:26:28 51°10.985 2°43.023 257.2 14.8 254 11.3
2005-05-27 07:26:33 51°10.979 2°42.992 257.3 14.8 254 11.3
2005-05-27 07:26:38 51°10.974 2°42.96 257.3 14.8 254 11.3
2005-05-27 07:26:42 51°10.969 2°42.935 257.2 14.7 254 11.3
2005-05-27 07:26:48 51°10.962 2°42.898 256.9 14.7 254 11.3
2005-05-27 07:26:53 51°10.956 2°42.867 256.7 14.7 254 11.4
2005-05-27 07:26:57 51°10.951 2°42.839 256.9 14.7 254 11.3
2005-05-27 07:27:02 51°10.946 2°42.811 256.9 14.7 254 11.3
2005-05-27 07:27:08 51°10.939 2°42.773 257 14.7 254 11.3
2005-05-27 07:27:12 51°10.934 2°42.745 257 14.7 254 11.3
2005-05-27 07:27:18 51°10.928 2°42.711 257.1 14.6 254 11.3
2005-05-27 07:27:22 51°10.923 2°42.686 257.2 14.6 254 11.3
2005-05-27 07:27:28 51°10.917 2°42.649 257.6 14.7 255 11.3
2005-05-27 07:27:32 51°10.912 2°42.621 258.2 14.6 255 11.3
2005-05-27 07:27:37 51°10.907 2°42.593 258.3 14.6 255 11.3
2005-05-27 07:27:42 51°10.902 2°42.562 258.3 14.6 255 11.3
2005-05-27 07:27:48 51°10.895 2°42.525 258.3 14.6 254 11.3
2005-05-27 07:27:52 51°10.89 2°42.497 258.1 14.6 254 11.3
2005-05-27 07:27:58 51°10.884 2°42.463 257.8 14.6 254 11.3
2005-05-27 07:28:02 51°10.879 2°42.438 257.5 14.6 254 11.3
2005-05-27 07:28:08 51°10.873 2°42.401 257.2 14.5 254 11.4
2005-05-27 07:28:12 51°10.868 2°42.373 257.2 14.5 254 11.3
2005-05-27 07:28:18 51°10.862 2°42.339 257.2 14.6 254 11.3
2005-05-27 07:28:22 51°10.857 2°42.315 257.6 14.6 254 11.3
2005-05-27 07:28:28 51°10.851 2°42.278 257.6 14.6 254 11.3
2005-05-27 07:28:32 51°10.845 2°42.25 257.7 14.6 254 11.3
2005-05-27 07:28:38 51°10.839 2°42.216 257.4 14.6 254 11.3
2005-05-27 07:28:43 51°10.833 2°42.185 257.2 14.6 254 11.3
2005-05-27 07:28:48 51°10.828 2°42.154 256.9 14.6 254 11.3
2005-05-27 07:28:52 51°10.823 2°42.126 257.2 14.6 254 11.3
2005-05-27 07:28:58 51°10.817 2°42.092 257.5 -999 -999 11.4
2005-05-27 07:29:02 51°10.812 2°42.064 257.8 14.6 254 11.4
2005-05-27 07:29:08 51°10.806 2°42.03 257.9 14.6 254 11.4
2005-05-27 07:29:12 51°10.801 2°42.002 257.7 14.6 254 11.3
2005-05-27 07:29:18 51°10.795 2°41.968 257.6 14.6 254 11.3
2005-05-27 07:29:22 51°10.79 2°41.94 257.4 14.6 254 11.4
2005-05-27 07:29:28 51°10.784 2°41.906 257 14.6 254 11.3
2005-05-27 07:29:32 51°10.779 2°41.878 256.9 14.6 254 11.3
2005-05-27 07:29:38 51°10.773 2°41.844 257.1 14.6 255 11.4
2005-05-27 07:29:42 51°10.769 2°41.819 257.6 14.6 255 11.3
2005-05-27 07:29:48 51°10.762 2°41.782 258 14.6 255 11.3
2005-05-27 07:29:52 51°10.757 2°41.754 258.1 14.6 255 11.4
2005-05-27 07:29:58 51°10.751 2°41.719 258.1 14.7 254 11.4
2005-05-27 07:30:02 51°10.747 2°41.695 257.6 14.7 254 11.4
2005-05-27 07:30:08 51°10.74 2°41.657 257.3 14.7 254 11.4
2005-05-27 07:30:12 51°10.735 2°41.629 257 14.7 254 11.4
2005-05-27 07:30:18 51°10.729 2°41.595 257 14.7 254 11.3
2005-05-27 07:30:22 51°10.724 2°41.57 257.4 14.7 254 11.4
2005-05-27 07:30:28 51°10.718 2°41.533 257.6 14.7 255 11.4
2005-05-27 07:30:32 51°10.713 2°41.505 257.8 14.7 255 11.4
2005-05-27 07:30:38 51°10.707 2°41.47 257.7 14.7 255 11.3
2005-05-27 07:30:42 51°10.702 2°41.445 257.4 14.7 254 11.3
2005-05-27 07:30:48 51°10.696 2°41.408 257.3 14.7 254 11.4
2005-05-27 07:30:52 51°10.691 2°41.38 257.2 14.7 254 11.4
2005-05-27 07:30:58 51°10.684 2°41.346 257 14.7 254 11.3
2005-05-27 07:31:02 51°10.68 2°41.321 257.2 14.7 254 11.4
2005-05-27 07:31:08 51°10.673 2°41.28 257.5 14.7 254 11.4
2005-05-27 07:31:12 51°10.669 2°41.255 257.8 14.7 254 11.4
2005-05-27 07:31:18 51°10.663 2°41.22 257.7 14.7 255 11.4
2005-05-27 07:31:23 51°10.657 2°41.189 257.5 14.7 254 11.4
2005-05-27 07:31:28 51°10.652 2°41.158 257 14.7 254 11.4
2005-05-27 07:31:32 51°10.646 2°41.13 256.9 14.7 254 11.3
2005-05-27 07:31:38 51°10.64 2°41.095 256.8 14.7 254 11.4
2005-05-27 07:31:42 51°10.636 2°41.07 256.9 14.7 254 11.4
2005-05-27 07:31:48 51°10.629 2°41.032 257 14.7 254 11.4
2005-05-27 07:31:52 51°10.624 2°41.004 257.3 14.7 254 11.3
2005-05-27 07:31:58 51°10.618 2°40.97 257.5 14.7 255 11.4
2005-05-27 07:32:02 51°10.613 2°40.941 257.5 14.7 255 11.4
2005-05-27 07:32:08 51°10.607 2°40.907 257.5 14.8 254 11.4
2005-05-27 07:32:12 51°10.602 2°40.878 257.4 14.8 254 11.5
2005-05-27 07:32:16 51°10.598 2°40.853 257.3 14.8 254 11.5
2005-05-27 07:32:22 51°10.591 2°40.819 256.9 14.8 254 11.5
2005-05-27 07:32:28 51°10.584 2°40.781 256.8 14.8 253 11.5
2005-05-27 07:32:33 51°10.579 2°40.75 256.6 14.8 253 11.5
2005-05-27 07:32:38 51°10.573 2°40.718 256.9 14.8 254 11.5
2005-05-27 07:32:42 51°10.569 2°40.693 256.9 14.8 254 11.5
2005-05-27 07:32:48 51°10.562 2°40.652 257.1 14.8 254 11.6
2005-05-27 07:32:52 51°10.557 2°40.627 257.2 14.8 254 11.6
2005-05-27 07:32:58 51°10.551 2°40.593 257.6 14.8 255 11.7
2005-05-27 07:33:02 51°10.547 2°40.567 257.7 14.8 255 11.7
2005-05-27 07:33:08 51°10.54 2°40.53 257.6 14.8 255 11.7
2005-05-27 07:33:13 51°10.535 2°40.498 257.3 14.8 255 11.8
2005-05-27 07:33:18 51°10.529 2°40.467 257 14.8 254 11.8
2005-05-27 07:33:22 51°10.524 2°40.438 256.9 14.8 254 11.9
2005-05-27 07:33:28 51°10.518 2°40.404 256.9 14.8 254 11.9
2005-05-27 07:33:33 51°10.512 2°40.372 257 14.8 254 12.1
2005-05-27 07:33:37 51°10.508 2°40.343 257.4 14.8 255 12.1
2005-05-27 07:33:42 51°10.504 2°40.315 258.1 14.8 256 12.1
2005-05-27 07:33:48 51°10.498 2°40.277 259 14.8 256 12.2
2005-05-27 07:33:53 51°10.493 2°40.245 259.1 14.8 256 12.2
2005-05-27 07:33:58 51°10.488 2°40.213 259.2 14.8 257 12.2
2005-05-27 07:34:02 51°10.484 2°40.188 259.4 14.8 256 12.3
2005-05-27 07:34:08 51°10.478 2°40.15 259.2 14.9 256 12.3
2005-05-27 07:34:12 51°10.474 2°40.121 259.2 14.9 256 12.4
2005-05-27 07:34:18 51°10.469 2°40.086 259.2 14.9 256 12.4
2005-05-27 07:34:22 51°10.465 2°40.061 259.2 14.9 256 12.5
2005-05-27 07:34:28 51°10.459 2°40.023 259.1 14.8 256 12.4
2005-05-27 07:34:32 51°10.454 2°39.994 259.1 14.8 256 12.5
2005-05-27 07:34:38 51°10.449 2°39.959 259.1 14.8 256 12.5
2005-05-27 07:34:43 51°10.444 2°39.927 258.9 14.8 256 12.6
2005-05-27 07:34:48 51°10.439 2°39.896 258.8 14.8 256 12.6
2005-05-27 07:34:52 51°10.435 2°39.867 259 14.8 256 12.7
2005-05-27 07:34:58 51°10.43 2°39.831 259.2 14.8 257 12.7
2005-05-27 07:35:03 51°10.425 2°39.8 259.6 14.8 257 12.8
2005-05-27 07:35:08 51°10.421 2°39.768 259.5 14.9 256 12.8
2005-05-27 07:35:12 51°10.416 2°39.739 259.5 14.9 256 12.9
2005-05-27 07:35:18 51°10.411 2°39.704 259.3 14.9 256 12.9
2005-05-27 07:35:22 51°10.407 2°39.678 259.1 14.9 257 13
2005-05-27 07:35:28 51°10.401 2°39.64 259.1 14.9 257 13
2005-05-27 07:35:32 51°10.397 2°39.611 259.1 14.9 257 13.1
2005-05-27 07:35:38 51°10.392 2°39.576 259.3 14.9 256 13.1
2005-05-27 07:35:42 51°10.388 2°39.551 259.1 14.9 257 13.2
2005-05-27 07:35:48 51°10.382 2°39.513 259.1 14.9 256 13.3
2005-05-27 07:35:53 51°10.377 2°39.481 259.1 14.9 256 13.3
2005-05-27 07:35:56 51°10.374 2°39.459 258.9 14.9 256 13.3
2005-05-27 07:36:02 51°10.368 2°39.424 258.9 14.9 256 13.4
2005-05-27 07:36:08 51°10.362 2°39.386 259 14.9 256 13.4
2005-05-27 07:36:13 51°10.357 2°39.354 259.1 14.9 256 13.4
2005-05-27 07:36:18 51°10.353 2°39.322 259.2 14.9 256 13.5
2005-05-27 07:36:22 51°10.349 2°39.297 259.2 14.9 256 13.5
2005-05-27 07:36:28 51°10.343 2°39.258 259.9 14.9 257 13.6
2005-05-27 07:36:32 51°10.34 2°39.233 259.8 14.9 257 13.9
2005-05-27 07:36:38 51°10.334 2°39.195 259.5 14.9 256 13.9
2005-05-27 07:36:43 51°10.329 2°39.163 259.2 14.9 256 13.9
2005-05-27 07:36:48 51°10.325 2°39.131 259.2 14.9 256 14
2005-05-27 07:36:53 51°10.32 2°39.099 259.6 14.9 256 14.2
2005-05-27 07:36:58 51°10.315 2°39.067 259.7 14.9 257 14.2
2005-05-27 07:37:02 51°10.311 2°39.041 259.3 14.9 256 14.3
2005-05-27 07:37:08 51°10.306 2°39.003 259 14.9 257 14.2
2005-05-27 07:37:12 51°10.301 2°38.974 259.1 14.9 257 14.2
2005-05-27 07:37:18 51°10.297 2°38.939 259.3 14.9 257 14
2005-05-27 07:37:22 51°10.293 2°38.913 259.6 14.9 257 14.1
2005-05-27 07:37:28 51°10.286 2°38.872 259.3 14.9 256 14.3
2005-05-27 07:37:32 51°10.282 2°38.847 259.1 14.9 256 14.4
2005-05-27 07:37:38 51°10.277 2°38.812 258.9 14.9 256 14.6
2005-05-27 07:37:42 51°10.273 2°38.786 258.6 14.9 256 14.7
2005-05-27 07:37:48 51°10.266 2°38.745 258.6 14.8 256 14.6
2005-05-27 07:37:52 51°10.262 2°38.72 258.5 14.8 256 14.4
2005-05-27 07:37:58 51°10.257 2°38.685 258.4 14.8 256 14.8
2005-05-27 07:38:02 51°10.252 2°38.656 258.5 14.8 256 14.9
2005-05-27 07:38:08 51°10.247 2°38.621 258.6 14.9 256 14.9
2005-05-27 07:38:13 51°10.242 2°38.589 259 14.9 256 14.5
2005-05-27 07:38:18 51°10.236 2°38.558 258.5 14.9 256 14.7
2005-05-27 07:38:22 51°10.232 2°38.533 257.7 14.8 255 14.9
2005-05-27 07:38:28 51°10.225 2°38.495 257 14.9 254 14.7
2005-05-27 07:38:33 51°10.22 2°38.463 256.9 14.9 254 14.6
2005-05-27 07:38:38 51°10.214 2°38.432 256.4 14.8 254 14.4
2005-05-27 07:38:42 51°10.209 2°38.407 256.2 14.8 253 14.4
2005-05-27 07:38:47 51°10.203 2°38.372 255.9 14.8 253 14.6
2005-05-27 07:38:53 51°10.197 2°38.338 255.9 14.8 253 14.4
2005-05-27 07:38:58 51°10.191 2°38.306 255.8 14.8 253 14.6
2005-05-27 07:39:03 51°10.185 2°38.275 255.8 14.8 253 14.6
2005-05-27 07:39:08 51°10.179 2°38.243 255.9 14.8 253 14.6
2005-05-27 07:39:12 51°10.174 2°38.215 256 14.8 253 14.9
2005-05-27 07:39:18 51°10.168 2°38.18 256.2 14.8 253 14.9
2005-05-27 07:39:23 51°10.162 2°38.148 256.3 14.8 254 15.1
2005-05-27 07:39:28 51°10.156 2°38.117 256.3 14.9 254 15.3
2005-05-27 07:39:32 51°10.151 2°38.088 256.5 14.8 254 15.1
2005-05-27 07:39:36 51°10.147 2°38.063 256.2 14.9 254 15.4
2005-05-27 07:39:42 51°10.141 2°38.025 257 14.8 255 15.1
2005-05-27 07:39:48 51°10.135 2°37.99 257.8 14.8 255 14.8
2005-05-27 07:39:52 51°10.131 2°37.961 258.1 14.8 255 15.5
2005-05-27 07:39:58 51°10.125 2°37.926 258.9 14.9 256 15.2
2005-05-27 07:40:03 51°10.121 2°37.895 259.1 14.9 256 15.2
2005-05-27 07:40:08 51°10.116 2°37.863 259.2 14.9 256 15.7
2005-05-27 07:40:12 51°10.112 2°37.834 259.1 14.9 256 15.7
2005-05-27 07:40:17 51°10.107 2°37.802 259.1 14.9 256 15.3
2005-05-27 07:40:23 51°10.101 2°37.767 259.1 14.9 256 15.8
2005-05-27 07:40:28 51°10.097 2°37.735 259.1 14.9 256 15.9
2005-05-27 07:40:32 51°10.092 2°37.706 259.1 14.8 256 15.9
2005-05-27 07:40:38 51°10.087 2°37.671 258.9 14.8 256 15.9
2005-05-27 07:40:43 51°10.082 2°37.639 259.2 14.9 257 16
2005-05-27 07:40:48 51°10.078 2°37.607 259.4 14.8 257 16.1
2005-05-27 07:40:52 51°10.073 2°37.578 259.5 14.9 257 16
2005-05-27 07:40:58 51°10.068 2°37.543 259.4 14.9 257 16.2
2005-05-27 07:41:02 51°10.064 2°37.518 259.5 14.9 257 16.1
2005-05-27 07:41:08 51°10.059 2°37.479 259.5 14.9 257 16.2
2005-05-27 07:41:12 51°10.054 2°37.451 259.4 14.9 257 16.2
2005-05-27 07:41:18 51°10.049 2°37.416 259.3 14.9 257 16.2
2005-05-27 07:41:22 51°10.045 2°37.39 259.2 14.9 257 16.3
2005-05-27 07:41:28 51°10.04 2°37.352 259.2 14.9 257 16.2
2005-05-27 07:41:32 51°10.036 2°37.323 260.3 14.9 258 16.3
2005-05-27 07:41:38 51°10.031 2°37.287 260.5 14.9 258 16.2
2005-05-27 07:41:42 51°10.028 2°37.262 260.8 14.9 258 16.2
2005-05-27 07:41:48 51°10.023 2°37.223 261.2 14.9 259 16.3
2005-05-27 07:41:52 51°10.02 2°37.193 261.5 14.9 259 16.2
2005-05-27 07:41:58 51°10.015 2°37.158 261.7 14.9 259 16.2
2005-05-27 07:42:03 51°10.011 2°37.126 261.5 14.9 259 16.3
2005-05-27 07:42:08 51°10.007 2°37.094 261.2 14.9 258 16.4
2005-05-27 07:42:13 51°10.003 2°37.062 261.2 14.8 258 16.5
2005-05-27 07:42:16 51°10 2°37.039 261.3 14.8 259 16.5
2005-05-27 07:42:22 51°9.996 2°37.004 261.6 14.8 259 16.5
2005-05-27 07:42:28 51°9.991 2°36.965 261.8 14.8 259 16.3
2005-05-27 07:42:32 51°9.987 2°36.936 261.8 14.8 259 16.3
2005-05-27 07:42:38 51°9.983 2°36.901 261.5 14.8 258 16.2
2005-05-27 07:42:42 51°9.979 2°36.876 261.2 14.8 258 16.5
2005-05-27 07:42:48 51°9.975 2°36.837 261.2 14.8 259 16.2
2005-05-27 07:42:52 51°9.972 2°36.808 262.5 14.8 261 16.6
2005-05-27 07:42:58 51°9.968 2°36.772 263 14.9 260 16.6
2005-05-27 07:43:03 51°9.965 2°36.74 264 14.9 261 16.4
2005-05-27 07:43:08 51°9.962 2°36.707 264.3 14.9 261 16.1
2005-05-27 07:43:12 51°9.959 2°36.678 264.6 14.9 261 16.6
2005-05-27 07:43:18 51°9.956 2°36.643 264.9 14.9 261 16.5
2005-05-27 07:43:23 51°9.954 2°36.61 265.1 14.9 261 16.5
2005-05-27 07:43:28 51°9.951 2°36.578 265.9 14.8 263 16.4
2005-05-27 07:43:32 51°9.949 2°36.549 265.9 14.8 263 16.3
2005-05-27 07:43:38 51°9.946 2°36.513 266.5 14.8 263 16.1
2005-05-27 07:43:42 51°9.945 2°36.487 266.8 14.9 264 16.4
2005-05-27 07:43:48 51°9.943 2°36.448 267.7 14.9 264 16.5
2005-05-27 07:43:52 51°9.941 2°36.419 268.2 14.9 264 16.5
2005-05-27 07:43:58 51°9.939 2°36.383 268.6 14.9 264 16.4
2005-05-27 07:44:02 51°9.938 2°36.357 268.9 14.9 264 16.4
2005-05-27 07:44:08 51°9.937 2°36.318 268.9 14.9 266 16.2
2005-05-27 07:44:12 51°9.937 2°36.288 269.3 14.9 266 16.3
2005-05-27 07:44:18 51°9.94 2°36.253 273.7 14.7 275 16.5
2005-05-27 07:44:22 51°9.942 2°36.227 279.4 14.7 275 16.5
2005-05-27 07:44:28 51°9.947 2°36.189 282.6 14.7 278 16.5
2005-05-27 07:44:33 51°9.953 2°36.158 285.6 14.7 278 16.5
2005-05-27 07:44:37 51°9.958 2°36.13 290.7 14.6 287 16.6
2005-05-27 07:44:42 51°9.964 2°36.104 293.3 14.6 289 16.8
2005-05-27 07:44:48 51°9.973 2°36.068 295.5 14.5 290 16.7
2005-05-27 07:44:52 51°9.981 2°36.042 297.9 14.5 294 16.8
2005-05-27 07:44:58 51°9.992 2°36.011 301.8 14.5 295 16.6
2005-05-27 07:45:02 51°10.001 2°35.986 304.1 14.4 300 16.4
2005-05-27 07:45:08 51°10.014 2°35.958 307 14.3 304 16.3
2005-05-27 07:45:12 51°10.025 2°35.936 311.4 14.3 304 16.2
2005-05-27 07:45:18 51°10.039 2°35.91 315 14.3 304 15.9
2005-05-27 07:45:23 51°10.052 2°35.887 317.6 14.2 311 15.4
2005-05-27 07:45:28 51°10.066 2°35.864 319.4 14.2 311 15.1
2005-05-27 07:45:32 51°10.079 2°35.846 321.2 14.1 315 14.2
2005-05-27 07:45:38 51°10.095 2°35.826 325.6 14.1 315 13.9
2005-05-27 07:45:43 51°10.111 2°35.808 329.6 13.8 323 13.1
2005-05-27 07:45:48 51°10.127 2°35.792 332.7 13.7 326 12.2
2005-05-27 07:45:53 51°10.143 2°35.778 335.4 13.6 329 11.5
2005-05-27 07:45:58 51°10.16 2°35.764 338.9 13.6 329 10.9
2005-05-27 07:46:02 51°10.174 2°35.754 341.4 13.3 334 10.1
2005-05-27 07:46:08 51°10.194 2°35.74 343.5 13.2 336 9.7
2005-05-27 07:46:12 51°10.209 2°35.73 344.9 13.2 336 9.6
2005-05-27 07:46:18 51°10.227 2°35.718 345.9 13.2 336 9.5
2005-05-27 07:46:23 51°10.244 2°35.706 346.7 13.2 336 9.6
2005-05-27 07:46:28 51°10.261 2°35.696 346.9 13.2 336 9.7
2005-05-27 07:46:33 51°10.278 2°35.687 347.2 13.2 336 9.6
2005-05-27 07:46:38 51°10.296 2°35.679 348.4 13.2 344 9.5
2005-05-27 07:46:42 51°10.31 2°35.675 351.2 13.2 344 9.7
2005-05-27 07:46:48 51°10.332 2°35.672 355.8 13.1 348 9.9
2005-05-27 07:46:52 51°10.348 2°35.673 1.2 13.1 348 9.7
2005-05-27 07:46:58 51°10.367 2°35.677 6.8 13.1 348 9.7
2005-05-27 07:47:02 51°10.381 2°35.682 13 13.1 348 9.9
2005-05-27 07:47:08 51°10.401 2°35.69 18.4 13.1 348 10
2005-05-27 07:47:12 51°10.416 2°35.697 21.6 13.1 348 9.7
2005-05-27 07:47:18 51°10.434 2°35.707 24 12.5 17 9.6
2005-05-27 07:47:22 51°10.447 2°35.715 25.9 12.5 19 9.6
2005-05-27 07:47:28 51°10.467 2°35.727 26.8 12.5 21 9.6
2005-05-27 07:47:32 51°10.481 2°35.736 28 12.5 21 9.5
2005-05-27 07:47:38 51°10.499 2°35.747 28.9 12.5 22 9.5
2005-05-27 07:47:43 51°10.515 2°35.757 29.2 12.5 22 9.5
2005-05-27 07:47:48 51°10.531 2°35.768 29.4 12.5 22 9.4
2005-05-27 07:47:52 51°10.545 2°35.778 29.5 12.5 22 9.4
2005-05-27 07:47:58 51°10.562 2°35.793 30.6 12.5 25 9.2
2005-05-27 07:48:02 51°10.576 2°35.804 33.2 12.5 25 9.3
2005-05-27 07:48:08 51°10.592 2°35.82 35.2 12.4 30 9.3
2005-05-27 07:48:12 51°10.605 2°35.833 37 12.4 30 9.2
2005-05-27 07:48:18 51°10.621 2°35.85 38.5 12.4 32 9.2
2005-05-27 07:48:23 51°10.636 2°35.865 39.4 12.4 33 9.5
2005-05-27 07:48:28 51°10.65 2°35.88 39.9 12.4 33 9.4
2005-05-27 07:48:32 51°10.663 2°35.894 40.2 12.5 34 9.5
2005-05-27 07:48:38 51°10.679 2°35.91 40 12.5 33 9.5
2005-05-27 07:48:42 51°10.692 2°35.925 39.9 12.5 33 9.5
2005-05-27 07:48:48 51°10.708 2°35.942 39.9 12.5 34 9.6
2005-05-27 07:48:52 51°10.719 2°35.958 41.1 12.5 34 9.6
2005-05-27 07:48:58 51°10.734 2°35.977 43.5 12.5 38 9.4
2005-05-27 07:49:02 51°10.744 2°35.992 45.7 12.4 42 9.6
2005-05-27 07:49:08 51°10.758 2°36.015 47.5 12.4 42 9.7
2005-05-27 07:49:13 51°10.77 2°36.034 49 12.4 44 9.7
2005-05-27 07:49:16 51°10.779 2°36.047 49.9 12.4 44 9.7
2005-05-27 07:49:22 51°10.793 2°36.069 50.1 12.4 44 9.6
2005-05-27 07:49:28 51°10.808 2°36.092 50.5 12.4 44 9.9
2005-05-27 07:49:33 51°10.82 2°36.112 50.7 12.4 45 10
2005-05-27 07:49:38 51°10.833 2°36.131 50.5 12.4 44 10
2005-05-27 07:49:43 51°10.845 2°36.15 50.1 12.4 44 9.9
2005-05-27 07:49:48 51°10.858 2°36.17 50 12.4 44 10.1
2005-05-27 07:49:53 51°10.87 2°36.189 50 12.4 44 10.2
2005-05-27 07:49:58 51°10.882 2°36.208 50 12.5 44 10
2005-05-27 07:50:02 51°10.892 2°36.224 49.8 12.5 44 10.2
2005-05-27 07:50:08 51°10.907 2°36.247 49.5 12.5 44 10.2
2005-05-27 07:50:12 51°10.918 2°36.264 49.9 12.5 44 10.2
2005-05-27 07:50:18 51°10.932 2°36.286 50.2 12.5 45 10.2
2005-05-27 07:50:23 51°10.944 2°36.306 50.3 12.5 45 10.4
2005-05-27 07:50:28 51°10.957 2°36.325 50.5 12.5 45 10.3
2005-05-27 07:50:32 51°10.968 2°36.342 50.6 12.5 44 10.3
2005-05-27 07:50:38 51°10.981 2°36.363 50.2 12.5 44 10.3
2005-05-27 07:50:43 51°10.994 2°36.382 49.9 12.5 44 10.5
2005-05-27 07:50:48 51°11.006 2°36.401 49.5 12.5 44 10.6
2005-05-27 07:50:52 51°11.018 2°36.419 49.2 12.5 43 10.7
2005-05-27 07:50:58 51°11.031 2°36.439 49.2 12.5 44 10.7
2005-05-27 07:51:03 51°11.044 2°36.458 49.2 12.5 44 10.7
2005-05-27 07:51:08 51°11.057 2°36.477 49 12.5 43 10.7
2005-05-27 07:51:12 51°11.068 2°36.494 48.8 12.5 43 10.7
2005-05-27 07:51:18 51°11.082 2°36.515 48.9 12.5 43 10.9
2005-05-27 07:51:22 51°11.093 2°36.532 49.3 12.5 43 10.9
2005-05-27 07:51:28 51°11.107 2°36.553 49.3 12.5 44 10.9
2005-05-27 07:51:32 51°11.118 2°36.57 49.4 12.5 44 11
2005-05-27 07:51:38 51°11.132 2°36.591 49.5 12.5 43 10.9
2005-05-27 07:51:43 51°11.145 2°36.609 49.5 12.5 43 11
2005-05-27 07:51:48 51°11.157 2°36.629 49.3 12.5 43 11.1
2005-05-27 07:51:52 51°11.169 2°36.646 49.3 12.5 43 11.1
2005-05-27 07:51:58 51°11.182 2°36.666 49.3 12.5 43 11
2005-05-27 07:52:03 51°11.195 2°36.685 49.1 12.5 43 11
2005-05-27 07:52:07 51°11.206 2°36.702 48.9 12.5 43 11.2
2005-05-27 07:52:12 51°11.219 2°36.721 49 12.5 43 11.2
2005-05-27 07:52:18 51°11.233 2°36.742 49.4 12.5 43 11.3
2005-05-27 07:52:22 51°11.243 2°36.758 49.6 12.5 43 11.2
2005-05-27 07:52:28 51°11.257 2°36.781 49.8 12.5 43 11.4
2005-05-27 07:52:32 51°11.269 2°36.798 49.9 12.4 44 11.4
2005-05-27 07:52:38 51°11.283 2°36.818 49.5 12.4 44 11.5
2005-05-27 07:52:42 51°11.293 2°36.833 49.3 12.5 43 11.5
2005-05-27 07:52:48 51°11.308 2°36.856 49.1 12.5 43 11.4
2005-05-27 07:52:52 51°11.319 2°36.873 48.8 12.5 43 11.6
2005-05-27 07:52:58 51°11.333 2°36.894 48.8 12.4 44 11.6
2005-05-27 07:53:03 51°11.346 2°36.913 49.4 12.4 44 11.7
2005-05-27 07:53:08 51°11.358 2°36.932 49.7 12.4 44 11.7
2005-05-27 07:53:12 51°11.369 2°36.949 49.7 12.4 44 11.8
2005-05-27 07:53:18 51°11.383 2°36.97 49.4 12.5 44 11.7
2005-05-27 07:53:22 51°11.393 2°36.985 49.3 12.5 43 11.7
2005-05-27 07:53:28 51°11.408 2°37.007 49.3 12.5 43 11.8
2005-05-27 07:53:33 51°11.421 2°37.026 49.3 12.5 43 12
2005-05-27 07:53:38 51°11.434 2°37.045 49.3 12.5 43 11.8
2005-05-27 07:53:42 51°11.444 2°37.061 49.3 12.5 43 12.1
2005-05-27 07:53:48 51°11.459 2°37.083 49.3 12.5 44 12.1
2005-05-27 07:53:52 51°11.47 2°37.1 49.3 12.5 44 12
2005-05-27 07:53:58 51°11.484 2°37.121 49.3 12.5 44 12
2005-05-27 07:54:02 51°11.494 2°37.136 48.9 12.5 44 12.2
2005-05-27 07:54:08 51°11.51 2°37.157 47.9 12.5 41 12
2005-05-27 07:54:12 51°11.522 2°37.173 46.8 12.5 41 12.2
2005-05-27 07:54:18 51°11.537 2°37.192 46.3 12.5 41 12.1
2005-05-27 07:54:23 51°11.551 2°37.209 45.6 12.5 39 12.3
2005-05-27 07:54:28 51°11.564 2°37.227 45.2 12.5 39 12.2
2005-05-27 07:54:32 51°11.576 2°37.242 45.1 12.5 39 12.1
2005-05-27 07:54:38 51°11.591 2°37.262 45.2 12.5 39 12.3
2005-05-27 07:54:42 51°11.602 2°37.275 45.3 12.5 39 12.3
2005-05-27 07:54:48 51°11.619 2°37.295 44.5 12.5 36 12.1
2005-05-27 07:54:52 51°11.631 2°37.309 43.3 12.5 36 12.3
2005-05-27 07:54:58 51°11.647 2°37.327 42.4 12.5 36 12.1
2005-05-27 07:55:03 51°11.661 2°37.343 42 12.6 35 12.4
2005-05-27 07:55:08 51°11.676 2°37.359 41.5 12.5 35 12.1
2005-05-27 07:55:12 51°11.688 2°37.373 41.3 12.5 35 12.1
2005-05-27 07:55:18 51°11.705 2°37.39 40.9 12.5 34 12.3
2005-05-27 07:55:22 51°11.718 2°37.404 40.7 12.5 34 12.3
2005-05-27 07:55:28 51°11.733 2°37.421 40.6 12.5 34 12.3
2005-05-27 07:55:32 51°11.746 2°37.435 40.6 12.5 34 12.4
2005-05-27 07:55:38 51°11.761 2°37.452 41.1 12.5 34 12.1
2005-05-27 07:55:42 51°11.774 2°37.467 41.5 12.5 34 12.3
2005-05-27 07:55:48 51°11.79 2°37.484 41.5 12.5 34 12.2
2005-05-27 07:55:52 51°11.802 2°37.499 41.3 12.5 34 12.4
2005-05-27 07:55:58 51°11.818 2°37.516 41.2 12.5 34 12.4
2005-05-27 07:56:03 51°11.832 2°37.532 41.2 -999 -999 12.2
2005-05-27 07:56:08 51°11.846 2°37.548 41.3 12.5 35 12.2
2005-05-27 07:56:13 51°11.861 2°37.564 41.3 12.5 35 12.1
2005-05-27 07:56:18 51°11.875 2°37.58 41.4 12.5 35 12.4
2005-05-27 07:56:22 51°11.888 2°37.594 41.3 12.5 35 12.4
2005-05-27 07:56:28 51°11.903 2°37.611 41.2 12.4 35 12.3
2005-05-27 07:56:32 51°11.916 2°37.625 40.9 12.4 35 12.4
2005-05-27 07:56:38 51°11.931 2°37.642 40.9 12.4 34 12.4
2005-05-27 07:56:42 51°11.942 2°37.654 40.8 12.4 34 12.4
2005-05-27 07:56:48 51°11.959 2°37.672 40.6 12.4 34 12.4
2005-05-27 07:56:52 51°11.972 2°37.686 40.4 12.4 34 12.3
2005-05-27 07:56:58 51°11.987 2°37.703 40.5 12.4 34 12.3
2005-05-27 07:57:03 51°12.001 2°37.719 40.7 12.4 34 12.3
2005-05-27 07:57:08 51°12.015 2°37.734 41.1 12.4 34 12.1
2005-05-27 07:57:12 51°12.027 2°37.748 41.2 12.4 34 12.2
2005-05-27 07:57:18 51°12.043 2°37.765 41.1 12.4 35 12.2
2005-05-27 07:57:22 51°12.054 2°37.777 40.8 12.4 35 12.1
2005-05-27 07:57:28 51°12.071 2°37.795 40.6 12.4 35 12
2005-05-27 07:57:32 51°12.085 2°37.808 40.2 12.4 35 12
2005-05-27 07:57:38 51°12.101 2°37.824 38.8 12.4 30 12.2
2005-05-27 07:57:42 51°12.114 2°37.834 37 12.4 29 12.1
2005-05-27 07:57:48 51°12.132 2°37.85 35.7 12.4 28 12
2005-05-27 07:57:52 51°12.146 2°37.861 34.9 12.4 28 12.1
2005-05-27 07:57:56 51°12.158 2°37.871 34.4 12.4 27 11.9
2005-05-27 07:58:03 51°12.178 2°37.887 34 12.5 26 12
2005-05-27 07:58:08 51°12.194 2°37.899 33.5 12.4 27 12.1
2005-05-27 07:58:13 51°12.209 2°37.912 33.4 12.4 27 12
2005-05-27 07:58:17 51°12.223 2°37.923 33.5 12.5 27 11.9
2005-05-27 07:58:23 51°12.24 2°37.936 33.8 12.5 27 11.9
2005-05-27 07:58:28 51°12.255 2°37.949 33.9 12.4 26 11.9
2005-05-27 07:58:32 51°12.269 2°37.96 33.6 12.4 26 12
2005-05-27 07:58:38 51°12.286 2°37.973 33.3 12.4 27 12
2005-05-27 07:58:42 51°12.3 2°37.984 33.1 12.4 27 12
2005-05-27 07:58:48 51°12.317 2°37.997 33.1 12.4 27 11.7
2005-05-27 07:58:52 51°12.331 2°38.008 33.2 12.4 27 11.9
2005-05-27 07:58:58 51°12.348 2°38.022 33.3 12.4 27 11.9
2005-05-27 07:59:03 51°12.363 2°38.035 33.5 12.4 27 11.9
2005-05-27 07:59:08 51°12.378 2°38.047 33.9 12.5 27 11.7
2005-05-27 07:59:12 51°12.392 2°38.058 34 12.5 27 11.8
2005-05-27 07:59:18 51°12.409 2°38.072 33.9 12.5 27 11.9
2005-05-27 07:59:23 51°12.425 2°38.084 33.6 12.5 27 11.9
2005-05-27 07:59:28 51°12.44 2°38.096 33.5 12.5 27 12
2005-05-27 07:59:32 51°12.454 2°38.107 33.6 12.5 27 11.9
2005-05-27 07:59:38 51°12.471 2°38.121 33.9 12.4 28 11.8
2005-05-27 07:59:42 51°12.483 2°38.131 34.1 12.4 28 11.8
2005-05-27 07:59:48 51°12.503 2°38.148 34.1 12.4 27 11.9
2005-05-27 07:59:53 51°12.517 2°38.159 34.2 12.4 27 11.8
2005-05-27 07:59:58 51°12.532 2°38.171 34.1 12.4 27 11.8
2005-05-27 08:00:03 51°12.548 2°38.183 33.9 12.4 27 11.8
2005-05-27 08:00:08 51°12.563 2°38.195 33.8 12.4 27 11.8
2005-05-27 08:00:12 51°12.577 2°38.207 33.6 12.4 27 11.9
2005-05-27 08:00:18 51°12.594 2°38.22 34 12.4 27 11.9
2005-05-27 08:00:22 51°12.606 2°38.23 34 12.4 27 11.8
2005-05-27 08:00:28 51°12.626 2°38.245 33.8 12.4 26 12
2005-05-27 08:00:33 51°12.64 2°38.256 33.5 12.5 26 11.8
2005-05-27 08:00:38 51°12.656 2°38.268 33.3 12.4 26 11.9
2005-05-27 08:00:43 51°12.671 2°38.28 33.5 12.4 26 11.9
2005-05-27 08:00:48 51°12.687 2°38.293 33.7 12.4 26 11.9
2005-05-27 08:00:52 51°12.701 2°38.304 33.9 12.4 26 11.8
2005-05-27 08:00:58 51°12.718 2°38.317 33.9 12.4 26 11.9
2005-05-27 08:01:02 51°12.73 2°38.327 33.9 12.4 26 11.9
2005-05-27 08:01:08 51°12.748 2°38.342 34.1 12.4 26 11.6
2005-05-27 08:01:12 51°12.762 2°38.353 34.2 12.4 26 11.7
2005-05-27 08:01:18 51°12.779 2°38.367 34.3 12.4 26 11.9
2005-05-27 08:01:22 51°12.792 2°38.377 34.3 12.5 27 11.8
2005-05-27 08:01:28 51°12.81 2°38.391 34.3 12.5 27 11.8
2005-05-27 08:01:32 51°12.824 2°38.403 34.3 12.5 27 12
2005-05-27 08:01:38 51°12.842 2°38.416 34.3 12.5 26 11.9
2005-05-27 08:01:43 51°12.857 2°38.428 34.3 12.5 26 12
2005-05-27 08:01:48 51°12.873 2°38.441 34.3 12.5 26 12.1
2005-05-27 08:01:52 51°12.887 2°38.451 34.2 12.5 27 11.9
2005-05-27 08:01:58 51°12.904 2°38.464 34 12.5 26 12.1